sensor_id;sensor_type;location;lat;lon;timestamp;pressure;altitude;pressure_sealevel;temperature;humidity
83152;BME280;73381;58.502;8.624;2024-01-30T00:00:32;101338.47;;;0.75;77.61
83152;BME280;73381;58.502;8.624;2024-01-30T00:03:41;101394.91;;;1.08;78.03
83152;BME280;73381;58.502;8.624;2024-01-30T00:06:59;101397.19;;;1.22;78.46
83152;BME280;73381;58.502;8.624;2024-01-30T00:10:06;101395.53;;;1.19;78.57
83152;BME280;73381;58.502;8.624;2024-01-30T00:13:08;101396.41;;;1.18;78.53
83152;BME280;73381;58.502;8.624;2024-01-30T00:16:20;101390.56;;;1.09;79.07
83152;BME280;73381;58.502;8.624;2024-01-30T00:26:03;101385.44;;;1.06;79.67
83152;BME280;73381;58.502;8.624;2024-01-30T00:32:32;100953.72;;;-1.82;79.62
83152;BME280;73381;58.502;8.624;2024-01-30T00:39:22;101383.97;;;0.94;79.78
83152;BME280;73381;58.502;8.624;2024-01-30T00:42:32;101384.03;;;0.91;80.63
83152;BME280;73381;58.502;8.624;2024-01-30T00:45:43;101347.28;;;0.68;79.82
83152;BME280;73381;58.502;8.624;2024-01-30T00:48:45;101376.06;;;0.97;80.01
83152;BME280;73381;58.502;8.624;2024-01-30T00:51:47;101379.50;;;1.01;80.11
83152;BME280;73381;58.502;8.624;2024-01-30T00:54:53;101370.75;;;1.03;79.19
83152;BME280;73381;58.502;8.624;2024-01-30T01:01:21;101138.78;;;-0.60;80.14
83152;BME280;73381;58.502;8.624;2024-01-30T01:04:53;101365.97;;;0.85;80.32
83152;BME280;73381;58.502;8.624;2024-01-30T01:07:59;101346.28;;;0.75;80.06
83152;BME280;73381;58.502;8.624;2024-01-30T01:14:31;101363.44;;;0.82;80.46
83152;BME280;73381;58.502;8.624;2024-01-30T01:17:47;101362.38;;;0.91;79.98
83152;BME280;73381;58.502;8.624;2024-01-30T01:20:55;101240.25;;;0.12;80.23
83152;BME280;73381;58.502;8.624;2024-01-30T01:24:05;101353.84;;;0.85;80.65
83152;BME280;73381;58.502;8.624;2024-01-30T01:27:07;101165.72;;;-0.23;80.02
83152;BME280;73381;58.502;8.624;2024-01-30T01:30:21;101352.94;;;0.86;81.25
83152;BME280;73381;58.502;8.624;2024-01-30T01:33:34;101357.25;;;0.87;80.95
83152;BME280;73381;58.502;8.624;2024-01-30T01:37:09;101173.28;;;-0.14;80.98
83152;BME280;73381;58.502;8.624;2024-01-30T01:43:50;101347.91;;;0.79;80.75
83152;BME280;73381;58.502;8.624;2024-01-30T01:46:58;101341.00;;;0.78;80.63
83152;BME280;73381;58.502;8.624;2024-01-30T01:50:01;101318.84;;;0.62;81.74
83152;BME280;73381;58.502;8.624;2024-01-30T01:53:13;101336.03;;;0.67;81.18
83152;BME280;73381;58.502;8.624;2024-01-30T01:56:18;101316.16;;;0.65;81.17
83152;BME280;73381;58.502;8.624;2024-01-30T01:59:29;101317.06;;;0.64;81.19
83152;BME280;73381;58.502;8.624;2024-01-30T02:02:59;101311.03;;;0.62;81.31
83152;BME280;73381;58.502;8.624;2024-01-30T02:06:11;101294.81;;;0.50;80.82
83152;BME280;73381;58.502;8.624;2024-01-30T02:09:35;101307.59;;;0.61;80.80
83152;BME280;73381;58.502;8.624;2024-01-30T02:12:40;101164.75;;;-0.19;80.50
83152;BME280;73381;58.502;8.624;2024-01-30T02:15:49;101219.53;;;0.09;80.95
83152;BME280;73381;58.502;8.624;2024-01-30T02:22:24;101295.44;;;0.62;80.90
83152;BME280;73381;58.502;8.624;2024-01-30T02:28:44;101297.03;;;0.67;80.51
83152;BME280;73381;58.502;8.624;2024-01-30T02:31:46;101292.66;;;0.71;79.99
83152;BME280;73381;58.502;8.624;2024-01-30T02:34:51;101293.47;;;0.73;80.46
83152;BME280;73381;58.502;8.624;2024-01-30T02:37:56;101294.28;;;0.75;79.68
83152;BME280;73381;58.502;8.624;2024-01-30T02:41:08;101285.59;;;0.76;80.31
83152;BME280;73381;58.502;8.624;2024-01-30T02:44:26;101286.56;;;0.72;80.32
83152;BME280;73381;58.502;8.624;2024-01-30T02:50:57;101229.47;;;0.30;80.89
83152;BME280;73381;58.502;8.624;2024-01-30T02:54:01;101276.44;;;0.59;81.10
83152;BME280;73381;58.502;8.624;2024-01-30T02:57:04;101081.34;;;-0.43;79.75
83152;BME280;73381;58.502;8.624;2024-01-30T03:00:21;101263.31;;;0.64;80.21
83152;BME280;73381;58.502;8.624;2024-01-30T03:03:30;101191.50;;;0.23;80.52
83152;BME280;73381;58.502;8.624;2024-01-30T03:06:46;101219.66;;;0.41;80.36
83152;BME280;73381;58.502;8.624;2024-01-30T03:09:53;101120.44;;;-0.10;80.32
83152;BME280;73381;58.502;8.624;2024-01-30T03:12:55;101244.97;;;0.72;80.18
83152;BME280;73381;58.502;8.624;2024-01-30T03:15:57;101239.81;;;0.69;79.73
83152;BME280;73381;58.502;8.624;2024-01-30T03:19:03;101245.94;;;0.66;78.60
83152;BME280;73381;58.502;8.624;2024-01-30T03:22:16;101244.19;;;0.67;80.22
83152;BME280;73381;58.502;8.624;2024-01-30T03:25:25;101239.97;;;0.63;80.09
83152;BME280;73381;58.502;8.624;2024-01-30T03:28:31;101236.56;;;0.61;80.22
83152;BME280;73381;58.502;8.624;2024-01-30T03:31:38;101221.19;;;0.50;79.68
83152;BME280;73381;58.502;8.624;2024-01-30T03:34:50;101171.53;;;0.25;79.67
83152;BME280;73381;58.502;8.624;2024-01-30T03:37:52;101234.84;;;0.59;79.93
83152;BME280;73381;58.502;8.624;2024-01-30T03:40:55;101239.00;;;0.67;79.99
83152;BME280;73381;58.502;8.624;2024-01-30T03:47:11;101234.41;;;0.78;78.33
83152;BME280;73381;58.502;8.624;2024-01-30T03:50:13;101233.63;;;0.74;78.77
83152;BME280;73381;58.502;8.624;2024-01-30T03:53:23;101227.63;;;0.72;79.12
83152;BME280;73381;58.502;8.624;2024-01-30T03:56:54;101223.16;;;0.77;78.29
83152;BME280;73381;58.502;8.624;2024-01-30T04:00:01;101240.59;;;0.72;80.00
83152;BME280;73381;58.502;8.624;2024-01-30T04:03:07;101220.72;;;0.71;79.95
83152;BME280;73381;58.502;8.624;2024-01-30T04:06:25;101214.53;;;0.75;79.84
83152;BME280;73381;58.502;8.624;2024-01-30T04:09:33;101219.81;;;0.72;79.56
83152;BME280;73381;58.502;8.624;2024-01-30T04:12:40;101083.97;;;-0.06;79.85
83152;BME280;73381;58.502;8.624;2024-01-30T04:15:42;101211.25;;;0.67;80.32
83152;BME280;73381;58.502;8.624;2024-01-30T04:18:44;101148.91;;;0.32;79.81
83152;BME280;73381;58.502;8.624;2024-01-30T04:21:52;100980.81;;;-0.70;79.64
83152;BME280;73381;58.502;8.624;2024-01-30T04:25:23;101041.06;;;-0.59;79.47
83152;BME280;73381;58.502;8.624;2024-01-30T04:32:01;101158.88;;;0.48;78.55
83152;BME280;73381;58.502;8.624;2024-01-30T04:35:03;101212.00;;;0.72;79.76
83152;BME280;73381;58.502;8.624;2024-01-30T04:38:11;101207.84;;;0.65;80.84
83152;BME280;73381;58.502;8.624;2024-01-30T04:48:19;100937.56;;;-0.71;77.98
83152;BME280;73381;58.502;8.624;2024-01-30T04:51:20;101183.41;;;0.72;79.46
83152;BME280;73381;58.502;8.624;2024-01-30T04:54:27;101193.78;;;0.74;79.60
83152;BME280;73381;58.502;8.624;2024-01-30T04:57:44;101193.81;;;0.72;79.17
83152;BME280;73381;58.502;8.624;2024-01-30T05:00:45;101192.19;;;0.67;79.45
83152;BME280;73381;58.502;8.624;2024-01-30T05:10:50;101045.22;;;-0.15;79.43
83152;BME280;73381;58.502;8.624;2024-01-30T05:13:51;101187.69;;;0.75;78.75
83152;BME280;73381;58.502;8.624;2024-01-30T05:16:53;101178.81;;;0.82;78.54
83152;BME280;73381;58.502;8.624;2024-01-30T05:19:55;101148.94;;;0.64;77.97
83152;BME280;73381;58.502;8.624;2024-01-30T05:23:09;101170.09;;;0.84;78.40
83152;BME280;73381;58.502;8.624;2024-01-30T05:26:13;101164.06;;;0.82;78.84
83152;BME280;73381;58.502;8.624;2024-01-30T05:29:15;101158.28;;;0.73;78.63
83152;BME280;73381;58.502;8.624;2024-01-30T05:32:26;101124.38;;;0.43;79.61
83152;BME280;73381;58.502;8.624;2024-01-30T05:35:37;100876.63;;;-1.26;79.57
83152;BME280;73381;58.502;8.624;2024-01-30T05:38:47;100830.19;;;-1.35;79.63
83152;BME280;73381;58.502;8.624;2024-01-30T05:41:57;101131.28;;;0.44;80.41
83152;BME280;73381;58.502;8.624;2024-01-30T05:48:13;100871.69;;;-1.00;80.44
83152;BME280;73381;58.502;8.624;2024-01-30T05:51:27;101118.09;;;0.50;80.80
83152;BME280;73381;58.502;8.624;2024-01-30T05:54:29;101147.94;;;0.70;81.56
83152;BME280;73381;58.502;8.624;2024-01-30T05:57:32;101117.75;;;0.64;80.88
83152;BME280;73381;58.502;8.624;2024-01-30T06:00:34;101106.13;;;0.45;82.23
83152;BME280;73381;58.502;8.624;2024-01-30T06:03:36;101133.56;;;0.56;82.39
83152;BME280;73381;58.502;8.624;2024-01-30T06:06:39;101088.78;;;0.10;83.68
83152;BME280;73381;58.502;8.624;2024-01-30T06:09:41;101137.53;;;0.36;84.34
83152;BME280;73381;58.502;8.624;2024-01-30T06:12:44;101138.16;;;0.45;83.39
83152;BME280;73381;58.502;8.624;2024-01-30T06:15:47;101129.63;;;0.40;83.73
83152;BME280;73381;58.502;8.624;2024-01-30T06:22:07;101108.47;;;0.20;84.24
83152;BME280;73381;58.502;8.624;2024-01-30T06:25:18;101143.66;;;0.33;84.74
83152;BME280;73381;58.502;8.624;2024-01-30T06:28:36;101122.88;;;0.33;84.80
83152;BME280;73381;58.502;8.624;2024-01-30T06:31:41;101122.13;;;0.28;85.06
83152;BME280;73381;58.502;8.624;2024-01-30T06:34:43;101092.28;;;0.09;85.32
83152;BME280;73381;58.502;8.624;2024-01-30T06:37:45;101115.25;;;0.25;85.05
83152;BME280;73381;58.502;8.624;2024-01-30T06:40:49;100944.72;;;-0.81;86.02
83152;BME280;73381;58.502;8.624;2024-01-30T06:43:53;101115.50;;;0.16;85.97
83152;BME280;73381;58.502;8.624;2024-01-30T06:46:55;101111.28;;;0.11;86.03
83152;BME280;73381;58.502;8.624;2024-01-30T06:49:58;101109.53;;;0.11;86.26
83152;BME280;73381;58.502;8.624;2024-01-30T06:53:02;101100.97;;;0.08;87.06
83152;BME280;73381;58.502;8.624;2024-01-30T06:56:05;101106.09;;;0.11;86.98
83152;BME280;73381;58.502;8.624;2024-01-30T06:59:13;101118.13;;;0.15;86.32
83152;BME280;73381;58.502;8.624;2024-01-30T07:02:20;101122.50;;;0.11;87.35
83152;BME280;73381;58.502;8.624;2024-01-30T07:05:29;101128.53;;;0.15;86.96
83152;BME280;73381;58.502;8.624;2024-01-30T07:08:31;101108.84;;;0.05;87.43
83152;BME280;73381;58.502;8.624;2024-01-30T07:11:33;101130.16;;;0.19;86.91
83152;BME280;73381;58.502;8.624;2024-01-30T07:14:37;101119.75;;;0.19;87.66
83152;BME280;73381;58.502;8.624;2024-01-30T07:17:42;101105.91;;;0.18;87.89
83152;BME280;73381;58.502;8.624;2024-01-30T07:20:44;101112.94;;;0.15;87.81
83152;BME280;73381;58.502;8.624;2024-01-30T07:23:46;101103.41;;;0.14;87.94
83152;BME280;73381;58.502;8.624;2024-01-30T07:26:48;101100.81;;;0.14;87.66
83152;BME280;73381;58.502;8.624;2024-01-30T07:29:51;101095.78;;;0.08;88.02
83152;BME280;73381;58.502;8.624;2024-01-30T07:32:53;101090.50;;;0.11;87.52
83152;BME280;73381;58.502;8.624;2024-01-30T07:35:54;101087.06;;;0.10;87.86
83152;BME280;73381;58.502;8.624;2024-01-30T07:38:56;101084.53;;;0.07;87.50
83152;BME280;73381;58.502;8.624;2024-01-30T07:41:58;101077.56;;;0.09;87.88
83152;BME280;73381;58.502;8.624;2024-01-30T07:45:03;101077.59;;;0.08;88.18
83152;BME280;73381;58.502;8.624;2024-01-30T07:48:06;101073.22;;;0.10;87.70
83152;BME280;73381;58.502;8.624;2024-01-30T07:51:09;101052.44;;;0.10;87.76
83152;BME280;73381;58.502;8.624;2024-01-30T07:54:12;100912.66;;;-0.77;88.20
83152;BME280;73381;58.502;8.624;2024-01-30T07:57:15;101034.47;;;0.02;88.73
83152;BME280;73381;58.502;8.624;2024-01-30T08:00:19;100872.91;;;-1.16;88.20
83152;BME280;73381;58.502;8.624;2024-01-30T08:03:21;101035.03;;;-0.22;89.23
83152;BME280;73381;58.502;8.624;2024-01-30T08:06:23;101040.03;;;-0.13;89.48
83152;BME280;73381;58.502;8.624;2024-01-30T08:09:25;101021.75;;;-0.09;89.10
83152;BME280;73381;58.502;8.624;2024-01-30T08:12:27;101022.59;;;-0.08;89.17
83152;BME280;73381;58.502;8.624;2024-01-30T08:15:31;101026.94;;;-0.09;89.25
83152;BME280;73381;58.502;8.624;2024-01-30T08:18:33;101018.31;;;-0.11;89.47
83152;BME280;73381;58.502;8.624;2024-01-30T08:21:38;100994.38;;;-0.22;89.53
83152;BME280;73381;58.502;8.624;2024-01-30T08:24:42;100877.72;;;-0.98;89.84
83152;BME280;73381;58.502;8.624;2024-01-30T08:27:44;101006.41;;;-0.19;90.06
83152;BME280;73381;58.502;8.624;2024-01-30T08:30:48;100881.97;;;-0.95;89.47
83152;BME280;73381;58.502;8.624;2024-01-30T08:37:11;100947.44;;;-0.48;89.60
83152;BME280;73381;58.502;8.624;2024-01-30T08:43:43;100999.91;;;-0.02;89.91
83152;BME280;73381;58.502;8.624;2024-01-30T08:50:08;101038.13;;;-0.07;89.61
83152;BME280;73381;58.502;8.624;2024-01-30T08:56:28;100981.72;;;0.00;89.55
83152;BME280;73381;58.502;8.624;2024-01-30T08:59:31;100986.78;;;0.05;89.18
83152;BME280;73381;58.502;8.624;2024-01-30T09:05:48;100810.31;;;-0.99;89.17
83152;BME280;73381;58.502;8.624;2024-01-30T09:08:51;100902.38;;;-0.46;89.64
83152;BME280;73381;58.502;8.624;2024-01-30T09:12:02;100519.78;;;-2.99;89.96
83152;BME280;73381;58.502;8.624;2024-01-30T09:18:38;100827.25;;;-0.83;89.79
83152;BME280;73381;58.502;8.624;2024-01-30T09:25:21;100940.81;;;0.08;89.86
83152;BME280;73381;58.502;8.624;2024-01-30T09:28:38;100950.34;;;0.08;89.66
83152;BME280;73381;58.502;8.624;2024-01-30T09:31:42;100934.00;;;0.04;89.67
83152;BME280;73381;58.502;8.624;2024-01-30T09:34:51;100362.28;;;-3.42;89.36
83152;BME280;73381;58.502;8.624;2024-01-30T09:37:57;100582.16;;;-1.97;89.53
83152;BME280;73381;58.502;8.624;2024-01-30T09:41:08;100535.31;;;-2.22;89.56
83152;BME280;73381;58.502;8.624;2024-01-30T09:50:42;100522.13;;;-2.11;88.95
83152;BME280;73381;58.502;8.624;2024-01-30T09:53:48;100884.44;;;0.12;89.63
83152;BME280;73381;58.502;8.624;2024-01-30T10:00:12;100632.19;;;-1.61;90.55
83152;BME280;73381;58.502;8.624;2024-01-30T10:03:17;100559.44;;;-1.86;89.87
83152;BME280;73381;58.502;8.624;2024-01-30T10:13:06;100893.88;;;0.16;90.10
83152;BME280;73381;58.502;8.624;2024-01-30T10:16:21;100676.47;;;-1.02;89.76
83152;BME280;73381;58.502;8.624;2024-01-30T10:35:24;100794.75;;;-0.31;89.36
83152;BME280;73381;58.502;8.624;2024-01-30T10:41:38;100843.00;;;0.09;88.80
83152;BME280;73381;58.502;8.624;2024-01-30T10:44:55;100656.03;;;-0.80;89.36
83152;BME280;73381;58.502;8.624;2024-01-30T10:47:59;100600.22;;;-1.26;90.20
83152;BME280;73381;58.502;8.624;2024-01-30T10:51:04;100856.09;;;0.35;89.64
83152;BME280;73381;58.502;8.624;2024-01-30T10:57:34;100763.13;;;-0.13;89.92
83152;BME280;73381;58.502;8.624;2024-01-30T11:03:56;100831.00;;;0.34;89.56
83152;BME280;73381;58.502;8.624;2024-01-30T11:10:24;100677.34;;;-0.69;89.63
83152;BME280;73381;58.502;8.624;2024-01-30T11:13:27;100811.72;;;0.43;89.92
83152;BME280;73381;58.502;8.624;2024-01-30T11:16:32;100814.28;;;0.44;89.50
83152;BME280;73381;58.502;8.624;2024-01-30T11:19:35;100823.13;;;0.37;89.79
83152;BME280;73381;58.502;8.624;2024-01-30T11:32:23;100554.31;;;-1.21;89.40
83152;BME280;73381;58.502;8.624;2024-01-30T11:35:25;100672.13;;;-0.38;89.04
83152;BME280;73381;58.502;8.624;2024-01-30T11:38:27;100746.47;;;0.24;89.07
83152;BME280;73381;58.502;8.624;2024-01-30T11:41:29;100794.13;;;0.51;88.56
83152;BME280;73381;58.502;8.624;2024-01-30T11:44:32;100725.78;;;0.21;88.92
83152;BME280;73381;58.502;8.624;2024-01-30T11:50:56;100670.13;;;0.02;88.93
83152;BME280;73381;58.502;8.624;2024-01-30T11:53:58;100630.84;;;-0.17;88.42
83152;BME280;73381;58.502;8.624;2024-01-30T12:00:19;100474.34;;;-1.03;88.17
83152;BME280;73381;58.502;8.624;2024-01-30T12:03:21;100547.31;;;-0.58;88.84
83152;BME280;73381;58.502;8.624;2024-01-30T12:06:24;100544.88;;;-0.63;88.65
83152;BME280;73381;58.502;8.624;2024-01-30T12:15:34;100663.03;;;0.07;89.17
83152;BME280;73381;58.502;8.624;2024-01-30T12:21:57;100491.06;;;-0.84;88.93
83152;BME280;73381;58.502;8.624;2024-01-30T12:25:00;100712.84;;;0.47;89.32
83152;BME280;73381;58.502;8.624;2024-01-30T12:28:02;100699.00;;;0.47;89.59
83152;BME280;73381;58.502;8.624;2024-01-30T12:31:04;100540.44;;;-0.59;89.21
83152;BME280;73381;58.502;8.624;2024-01-30T12:53:30;100663.47;;;0.47;90.29
83152;BME280;73381;58.502;8.624;2024-01-30T13:06:19;100221.69;;;-2.00;88.83
83152;BME280;73381;58.502;8.624;2024-01-30T13:09:25;100164.47;;;-2.49;89.36
83152;BME280;73381;58.502;8.624;2024-01-30T13:12:32;100649.03;;;0.39;89.76
83152;BME280;73381;58.502;8.624;2024-01-30T13:15:35;100428.13;;;-0.89;89.56
83152;BME280;73381;58.502;8.624;2024-01-30T13:18:38;100621.84;;;0.22;89.29
83152;BME280;73381;58.502;8.624;2024-01-30T13:21:40;100620.06;;;-0.04;90.11
83152;BME280;73381;58.502;8.624;2024-01-30T13:24:45;100641.94;;;0.44;90.17
83152;BME280;73381;58.502;8.624;2024-01-30T13:27:47;100467.44;;;-0.47;89.78
83152;BME280;73381;58.502;8.624;2024-01-30T13:30:54;100427.84;;;-0.80;90.34
83152;BME280;73381;58.502;8.624;2024-01-30T13:33:56;100620.91;;;0.51;89.74
83152;BME280;73381;58.502;8.624;2024-01-30T13:36:59;100597.25;;;0.59;89.72
83152;BME280;73381;58.502;8.624;2024-01-30T13:40:05;100334.28;;;-1.00;89.30
83152;BME280;73381;58.502;8.624;2024-01-30T13:43:11;100613.81;;;0.56;89.40
83152;BME280;73381;58.502;8.624;2024-01-30T13:46:23;100612.19;;;0.52;89.92
83152;BME280;73381;58.502;8.624;2024-01-30T13:49:33;100525.69;;;-0.03;89.91
83152;BME280;73381;58.502;8.624;2024-01-30T13:52:36;100600.22;;;0.48;89.59
83152;BME280;73381;58.502;8.624;2024-01-30T13:55:48;100272.38;;;-1.36;89.90
83152;BME280;73381;58.502;8.624;2024-01-30T13:58:57;100400.66;;;-0.95;89.87
83152;BME280;73381;58.502;8.624;2024-01-30T14:01:59;100304.53;;;-1.15;89.83
83152;BME280;73381;58.502;8.624;2024-01-30T14:11:37;100189.19;;;-2.09;88.87
83152;BME280;73381;58.502;8.624;2024-01-30T14:14:41;100593.72;;;0.62;89.52
83152;BME280;73381;58.502;8.624;2024-01-30T14:17:43;100396.44;;;-0.44;89.34
83152;BME280;73381;58.502;8.624;2024-01-30T14:20:45;100359.94;;;-0.65;89.88
83152;BME280;73381;58.502;8.624;2024-01-30T14:27:06;100566.03;;;0.61;89.38
83152;BME280;73381;58.502;8.624;2024-01-30T14:30:10;100513.41;;;0.29;90.46
83152;BME280;73381;58.502;8.624;2024-01-30T14:36:33;100572.91;;;0.62;89.94
83152;BME280;73381;58.502;8.624;2024-01-30T14:46:06;100240.19;;;-1.29;89.70
83152;BME280;73381;58.502;8.624;2024-01-30T14:52:30;100123.69;;;-2.11;90.10
83152;BME280;73381;58.502;8.624;2024-01-30T14:55:36;100333.91;;;-0.88;89.62
83152;BME280;73381;58.502;8.624;2024-01-30T15:05:29;100175.56;;;-1.88;89.74
83152;BME280;73381;58.502;8.624;2024-01-30T15:08:45;100435.78;;;-0.05;90.70
83152;BME280;73381;58.502;8.624;2024-01-30T15:18:18;100506.72;;;0.22;90.59
83152;BME280;73381;58.502;8.624;2024-01-30T15:57:41;100332.19;;;-0.36;88.87
83152;BME280;73381;58.502;8.624;2024-01-30T16:20:25;100402.78;;;-0.02;89.97
83152;BME280;73381;58.502;8.624;2024-01-30T16:33:00;100167.22;;;-1.68;89.21
83152;BME280;73381;58.502;8.624;2024-01-30T16:39:26;100555.34;;;0.93;89.57
83152;BME280;73381;58.502;8.624;2024-01-30T16:42:42;100097.44;;;-1.99;88.66
83152;BME280;73381;58.502;8.624;2024-01-30T16:45:47;100559.50;;;0.97;89.16
83152;BME280;73381;58.502;8.624;2024-01-30T16:48:56;100058.75;;;-2.03;88.13
83152;BME280;73381;58.502;8.624;2024-01-30T16:58:27;100562.81;;;1.02;88.20
83152;BME280;73381;58.502;8.624;2024-01-30T17:01:30;100183.97;;;-1.25;87.03
83152;BME280;73381;58.502;8.624;2024-01-30T17:07:49;100133.06;;;-1.53;88.27
83152;BME280;73381;58.502;8.624;2024-01-30T17:10:52;100250.88;;;-0.86;89.25
83152;BME280;73381;58.502;8.624;2024-01-30T17:23:51;100592.69;;;0.91;89.39
83152;BME280;73381;58.502;8.624;2024-01-30T17:33:31;100141.84;;;-1.85;88.07
83152;BME280;73381;58.502;8.624;2024-01-30T17:36:35;100427.56;;;-0.18;88.27
83152;BME280;73381;58.502;8.624;2024-01-30T17:55:57;100210.03;;;-1.58;87.75
83152;BME280;73381;58.502;8.624;2024-01-30T18:05:34;100401.63;;;-0.18;87.86
83152;BME280;73381;58.502;8.624;2024-01-30T18:08:36;100611.16;;;1.08;87.22
83152;BME280;73381;58.502;8.624;2024-01-30T18:15:06;100422.06;;;-0.09;87.19
83152;BME280;73381;58.502;8.624;2024-01-30T18:18:08;100618.09;;;1.07;86.84
83152;BME280;73381;58.502;8.624;2024-01-30T18:21:10;100202.81;;;-1.48;85.74
83152;BME280;73381;58.502;8.624;2024-01-30T18:24:12;100142.41;;;-1.75;86.00
83152;BME280;73381;58.502;8.624;2024-01-30T18:27:15;100191.13;;;-1.33;85.71
83152;BME280;73381;58.502;8.624;2024-01-30T18:30:20;100411.69;;;-0.09;86.25
83152;BME280;73381;58.502;8.624;2024-01-30T18:40:04;100605.50;;;1.20;85.42
83152;BME280;73381;58.502;8.624;2024-01-30T18:43:08;100612.34;;;1.23;86.28
83152;BME280;73381;58.502;8.624;2024-01-30T18:49:24;100632.13;;;1.27;86.13
83152;BME280;73381;58.502;8.624;2024-01-30T18:52:30;100629.66;;;1.24;86.61
83152;BME280;73381;58.502;8.624;2024-01-30T18:55:42;100635.34;;;1.35;85.72
83152;BME280;73381;58.502;8.624;2024-01-30T18:58:51;100585.44;;;1.00;85.52
83152;BME280;73381;58.502;8.624;2024-01-30T19:02:00;100625.72;;;1.37;85.87
83152;BME280;73381;58.502;8.624;2024-01-30T19:05:22;100457.50;;;0.44;85.16
83152;BME280;73381;58.502;8.624;2024-01-30T19:08:25;100531.81;;;0.73;85.20
83152;BME280;73381;58.502;8.624;2024-01-30T19:11:27;100582.88;;;0.99;85.33
83152;BME280;73381;58.502;8.624;2024-01-30T19:14:29;100653.22;;;1.44;86.22
83152;BME280;73381;58.502;8.624;2024-01-30T19:21:10;100635.28;;;1.36;85.71
83152;BME280;73381;58.502;8.624;2024-01-30T19:24:12;100603.19;;;1.12;86.09
83152;BME280;73381;58.502;8.624;2024-01-30T19:27:14;100595.59;;;1.06;85.70
83152;BME280;73381;58.502;8.624;2024-01-30T19:30:16;100634.75;;;1.27;85.92
83152;BME280;73381;58.502;8.624;2024-01-30T19:33:19;100613.78;;;1.31;86.28
83152;BME280;73381;58.502;8.624;2024-01-30T19:36:24;100619.25;;;1.24;85.83
83152;BME280;73381;58.502;8.624;2024-01-30T19:39:27;100603.94;;;0.91;86.37
83152;BME280;73381;58.502;8.624;2024-01-30T19:42:38;100641.31;;;1.13;86.73
83152;BME280;73381;58.502;8.624;2024-01-30T19:45:41;100624.56;;;0.96;86.83
83152;BME280;73381;58.502;8.624;2024-01-30T19:48:48;100646.78;;;1.06;87.43
83152;BME280;73381;58.502;8.624;2024-01-30T19:51:51;100661.41;;;1.08;87.61
83152;BME280;73381;58.502;8.624;2024-01-30T19:54:54;100486.28;;;0.11;87.97
83152;BME280;73381;58.502;8.624;2024-01-30T19:57:58;100684.47;;;1.19;87.17
83152;BME280;73381;58.502;8.624;2024-01-30T20:01:05;100525.69;;;0.24;87.49
83152;BME280;73381;58.502;8.624;2024-01-30T20:07:39;100656.44;;;1.02;87.31
83152;BME280;73381;58.502;8.624;2024-01-30T20:10:41;100516.72;;;0.08;87.69
83152;BME280;73381;58.502;8.624;2024-01-30T20:13:45;100633.50;;;0.88;87.01
83152;BME280;73381;58.502;8.624;2024-01-30T20:16:49;100661.59;;;1.04;86.39
83152;BME280;73381;58.502;8.624;2024-01-30T20:20:12;100679.63;;;1.08;86.12
83152;BME280;73381;58.502;8.624;2024-01-30T20:23:15;100633.06;;;0.76;86.62
83152;BME280;73381;58.502;8.624;2024-01-30T20:26:17;100690.94;;;1.07;86.66
83152;BME280;73381;58.502;8.624;2024-01-30T20:29:19;100687.16;;;1.16;85.27
83152;BME280;73381;58.502;8.624;2024-01-30T20:32:21;100687.41;;;1.08;85.81
83152;BME280;73381;58.502;8.624;2024-01-30T20:35:25;100635.22;;;0.89;86.59
83152;BME280;73381;58.502;8.624;2024-01-30T20:38:30;100646.34;;;0.93;86.24
83152;BME280;73381;58.502;8.624;2024-01-30T20:41:37;100577.34;;;0.33;85.61
83152;BME280;73381;58.502;8.624;2024-01-30T20:48:08;100689.16;;;0.83;86.39
83152;BME280;73381;58.502;8.624;2024-01-30T20:51:11;100688.69;;;0.72;86.03
83152;BME280;73381;58.502;8.624;2024-01-30T20:54:16;100690.44;;;0.70;87.04
83152;BME280;73381;58.502;8.624;2024-01-30T21:00:33;100680.41;;;0.85;86.24
83152;BME280;73381;58.502;8.624;2024-01-30T21:06:50;100695.16;;;0.85;86.86
83152;BME280;73381;58.502;8.624;2024-01-30T21:09:54;100641.28;;;0.64;86.28
83152;BME280;73381;58.502;8.624;2024-01-30T21:12:57;100682.16;;;0.85;86.27
83152;BME280;73381;58.502;8.624;2024-01-30T21:16:03;100681.28;;;0.86;86.46
83152;BME280;73381;58.502;8.624;2024-01-30T21:22:28;100569.81;;;-0.03;86.23
83152;BME280;73381;58.502;8.624;2024-01-30T21:25:31;100696.25;;;0.78;86.43
83152;BME280;73381;58.502;8.624;2024-01-30T21:28:35;100573.22;;;-0.01;86.92
83152;BME280;73381;58.502;8.624;2024-01-30T21:31:43;100702.66;;;0.68;86.97
83152;BME280;73381;58.502;8.624;2024-01-30T21:35:12;100432.59;;;-0.94;86.28
83152;BME280;73381;58.502;8.624;2024-01-30T21:44:45;100680.41;;;0.59;86.38
83152;BME280;73381;58.502;8.624;2024-01-30T21:47:56;100666.66;;;0.55;86.03
83152;BME280;73381;58.502;8.624;2024-01-30T21:50:58;100671.16;;;0.50;86.11
83152;BME280;73381;58.502;8.624;2024-01-30T21:54:00;100678.84;;;0.53;86.32
83152;BME280;73381;58.502;8.624;2024-01-30T21:57:02;100677.66;;;0.37;86.14
83152;BME280;73381;58.502;8.624;2024-01-30T22:09:57;100613.75;;;-0.52;87.88
83152;BME280;73381;58.502;8.624;2024-01-30T22:12:59;100722.53;;;0.14;87.65
83152;BME280;73381;58.502;8.624;2024-01-30T22:16:02;100738.88;;;0.18;88.14
83152;BME280;73381;58.502;8.624;2024-01-30T22:19:04;100724.69;;;0.00;87.54
83152;BME280;73381;58.502;8.624;2024-01-30T22:22:06;100724.63;;;0.02;87.12
83152;BME280;73381;58.502;8.624;2024-01-30T22:28:18;100761.56;;;0.39;86.11
83152;BME280;73381;58.502;8.624;2024-01-30T22:31:20;100769.97;;;0.49;86.08
83152;BME280;73381;58.502;8.624;2024-01-30T22:34:22;100724.69;;;0.28;84.94
83152;BME280;73381;58.502;8.624;2024-01-30T22:37:25;100761.16;;;0.53;85.22
83152;BME280;73381;58.502;8.624;2024-01-30T22:40:27;100672.44;;;-0.19;85.08
83152;BME280;73381;58.502;8.624;2024-01-30T22:50:00;100756.75;;;0.56;84.26
83152;BME280;73381;58.502;8.624;2024-01-30T22:53:03;100599.53;;;-0.39;84.25
83152;BME280;73381;58.502;8.624;2024-01-30T22:59:11;100418.63;;;-1.78;84.41
83152;BME280;73381;58.502;8.624;2024-01-30T23:02:29;100767.84;;;0.62;83.38